St Asaph, United Kingdom
Current Conditions -  °F | °C
As of 7:50 PM on Tuesday 21 Oct 2014 (Local Time) from EGNR Reporting Station
Rain Showers Rain Showers  
Wind Chill: 50°   Ceiling: Unl
Heat Index: 50°   Visibility: 6mi
Dew Point: 37°   Wind: 26mph
Humidity: 62%   Direction: 310°NW
Pressure: 30.03"   Gusts: 41mph
Location:  53.27°N, 3.45°W
Report Text: EGNR 211850Z 31023G36KT 9999 VCSH SCT020 10/03 Q1017
Loading
Personal Weather Stations






























Interactive Weather Map
Tropical Storm Tracking
New forecast layout! Learn more

10-Day Weather Forecast

Advertisements
Track Severe Weather on mobile